createdAt,value
2023-05-04T00:00:51.963Z,26.60
2023-05-04T00:01:52.030Z,28.07
2023-05-04T00:02:52.163Z,29.52
2023-05-04T00:03:52.313Z,29.72
2023-05-04T00:04:52.262Z,27.78
2023-05-04T00:05:52.134Z,27.45
2023-05-04T00:06:52.183Z,26.17
2023-05-04T00:07:52.195Z,26.13
2023-05-04T00:08:52.246Z,26.82
2023-05-04T00:09:52.310Z,27.14
2023-05-04T00:10:52.307Z,27.71
2023-05-04T00:11:52.358Z,27.83
2023-05-04T00:12:52.451Z,26.18
2023-05-04T00:13:52.412Z,26.58
2023-05-04T00:14:52.456Z,26.40
2023-05-04T00:15:52.531Z,25.96
2023-05-04T00:16:52.541Z,29.09
2023-05-04T00:17:52.558Z,27.01
2023-05-04T00:18:52.589Z,26.59
2023-05-04T00:19:52.589Z,27.65
2023-05-04T00:20:52.638Z,29.20
2023-05-04T00:21:52.685Z,29.24
2023-05-04T00:22:52.690Z,30.98
2023-05-04T00:23:52.700Z,30.41
2023-05-04T00:24:52.726Z,30.52
2023-05-04T00:25:52.769Z,30.61
2023-05-04T00:26:52.791Z,31.05
2023-05-04T00:27:52.820Z,32.96
2023-05-04T00:28:52.863Z,32.62
2023-05-04T00:29:52.881Z,32.35
2023-05-04T00:30:52.902Z,31.85
2023-05-04T00:31:53.010Z,33.24
2023-05-04T00:32:53.043Z,32.20
2023-05-04T00:33:53.009Z,33.77
2023-05-04T00:34:53.115Z,34.67
2023-05-04T00:35:53.158Z,36.33
2023-05-04T00:36:53.246Z,35.13
2023-05-04T00:37:53.292Z,37.30
2023-05-04T00:38:53.335Z,35.62
2023-05-04T00:39:53.410Z,36.51
2023-05-04T00:40:53.439Z,37.14
2023-05-04T00:41:53.550Z,37.49
2023-05-04T00:42:53.599Z,38.61
2023-05-04T00:43:53.665Z,39.88
2023-05-04T00:44:53.745Z,39.94
2023-05-04T00:45:53.761Z,38.81
2023-05-04T00:46:53.931Z,40.81
2023-05-04T00:47:53.971Z,40.35
2023-05-04T00:48:53.983Z,39.54
2023-05-04T00:49:54.108Z,40.00
2023-05-04T00:50:54.120Z,39.45
2023-05-04T00:51:54.186Z,39.91
2023-05-04T00:52:54.234Z,40.49
2023-05-04T00:53:54.277Z,39.71
2023-05-04T00:54:54.381Z,40.15
2023-05-04T00:55:54.410Z,38.89
2023-05-04T00:56:54.553Z,39.64
2023-05-04T00:57:54.550Z,38.96
2023-05-04T00:58:54.692Z,39.81
2023-05-04T00:59:54.682Z,41.11
2023-05-04T01:00:54.807Z,39.28
2023-05-04T01:01:54.831Z,37.22
2023-05-04T01:02:54.967Z,37.08
2023-05-04T01:03:55.014Z,35.27
2023-05-04T01:04:54.977Z,36.72
2023-05-04T01:05:55.082Z,34.23
2023-05-04T01:06:55.171Z,34.67
2023-05-04T01:07:55.230Z,32.16
2023-05-04T01:08:55.316Z,31.26
2023-05-04T01:09:55.362Z,29.13
2023-05-04T01:10:55.419Z,31.45
2023-05-04T01:11:55.547Z,30.58
2023-05-04T01:12:55.635Z,29.43
2023-05-04T01:13:55.655Z,29.93
2023-05-04T01:14:55.727Z,31.33
2023-05-04T01:15:55.805Z,31.54
2023-05-04T01:16:55.981Z,31.55
2023-05-04T01:17:55.980Z,29.92
2023-05-04T01:18:56.027Z,27.82
2023-05-04T01:19:56.102Z,27.92
2023-05-04T01:20:56.173Z,29.16
2023-05-04T01:21:56.267Z,27.34
2023-05-04T01:22:56.329Z,27.52
2023-05-04T01:23:56.531Z,28.35
2023-05-04T01:24:56.486Z,26.98
2023-05-04T01:25:56.519Z,27.74
2023-05-04T01:26:56.649Z,25.84
2023-05-04T01:27:56.661Z,27.78
2023-05-04T01:28:56.780Z,26.89
2023-05-04T01:29:56.845Z,28.35
2023-05-04T01:30:56.968Z,28.24
2023-05-04T01:31:57.015Z,26.67
2023-05-04T01:32:57.075Z,27.02
2023-05-04T01:33:57.167Z,27.99
2023-05-04T01:34:57.239Z,27.65
2023-05-04T01:35:57.311Z,27.20
2023-05-04T01:36:57.400Z,27.96
2023-05-04T01:37:57.498Z,28.34
2023-05-04T01:38:57.561Z,26.93
2023-05-04T01:39:57.618Z,26.43
2023-05-04T01:40:57.717Z,26.22
2023-05-04T01:41:57.780Z,27.51
2023-05-04T01:42:57.864Z,27.67
2023-05-04T01:43:57.932Z,26.57
2023-05-04T01:44:58.012Z,25.00
2023-05-04T01:45:58.138Z,27.34
2023-05-04T01:46:58.186Z,29.15
2023-05-04T01:47:58.307Z,28.70
2023-05-04T01:48:58.338Z,29.59
2023-05-04T01:49:58.430Z,29.02
2023-05-04T01:50:58.489Z,28.65
2023-05-04T01:51:58.601Z,27.01
2023-05-04T01:52:58.706Z,26.61
2023-05-04T01:53:58.771Z,28.71
2023-05-04T01:54:58.833Z,27.94
2023-05-04T01:55:58.935Z,26.84
2023-05-04T01:56:59.035Z,27.64
2023-05-04T01:57:59.115Z,26.72
2023-05-04T01:58:59.195Z,26.90
2023-05-04T01:59:59.274Z,28.32
2023-05-04T02:00:59.376Z,28.59
2023-05-04T02:01:59.488Z,29.32
2023-05-04T02:02:59.603Z,28.43
2023-05-04T02:03:59.856Z,30.81
2023-05-04T02:04:59.704Z,30.25
2023-05-04T02:05:59.787Z,31.18
2023-05-04T02:06:59.899Z,31.04
2023-05-04T02:07:59.960Z,31.84
2023-05-04T02:09:00.134Z,32.04
2023-05-04T02:10:00.164Z,32.00
2023-05-04T02:11:00.236Z,32.02
2023-05-04T02:12:00.311Z,33.02
2023-05-04T02:13:00.442Z,31.27
2023-05-04T02:14:00.497Z,30.79
2023-05-04T02:15:00.596Z,31.17
2023-05-04T02:16:00.717Z,30.74
2023-05-04T02:17:00.766Z,30.81
2023-05-04T02:18:00.889Z,30.96
2023-05-04T02:19:00.953Z,30.73
2023-05-04T02:20:01.042Z,31.17
2023-05-04T02:21:01.157Z,32.80
2023-05-04T02:22:01.235Z,32.33
2023-05-04T02:23:01.300Z,32.66
2023-05-04T02:24:01.435Z,31.26
2023-05-04T02:25:01.485Z,33.37
2023-05-04T02:26:01.619Z,37.13
2023-05-04T02:27:01.712Z,37.72
2023-05-04T02:28:01.792Z,38.67
2023-05-04T02:29:01.887Z,38.24
2023-05-04T02:30:01.997Z,38.35
2023-05-04T02:31:02.084Z,38.64
2023-05-04T02:32:02.296Z,37.96
2023-05-04T02:33:02.388Z,38.21
2023-05-04T02:34:02.376Z,39.77
2023-05-04T02:35:02.487Z,41.38
2023-05-04T02:36:02.564Z,42.10
2023-05-04T02:37:03.061Z,41.78
2023-05-04T02:38:02.758Z,42.50
2023-05-04T02:39:02.840Z,42.43
2023-05-04T02:40:03.112Z,43.25
2023-05-04T02:41:03.028Z,42.33
2023-05-04T02:42:03.134Z,41.78
2023-05-04T02:43:03.274Z,42.39
2023-05-04T02:44:03.322Z,43.12
2023-05-04T02:45:03.457Z,44.94
2023-05-04T02:46:03.615Z,45.68
2023-05-04T02:47:03.648Z,46.71
2023-05-04T02:48:03.805Z,46.78
2023-05-04T02:49:03.834Z,47.50
2023-05-04T02:50:04.170Z,47.33
2023-05-04T02:51:04.056Z,48.60
2023-05-04T02:52:04.142Z,49.32
2023-05-04T02:53:04.260Z,50.97
2023-05-04T02:54:04.325Z,52.38
2023-05-04T02:55:04.437Z,51.90
2023-05-04T02:56:04.539Z,53.72
2023-05-04T02:57:04.651Z,53.82
2023-05-04T02:58:04.741Z,54.00
2023-05-04T02:59:04.901Z,54.94
2023-05-04T03:00:05.263Z,56.39
2023-05-04T03:01:05.068Z,54.99
2023-05-04T03:02:05.148Z,57.32
2023-05-04T03:03:05.286Z,57.37
2023-05-04T03:04:05.384Z,57.74
2023-05-04T03:05:05.419Z,57.91
2023-05-04T03:06:05.528Z,58.23
2023-05-04T03:07:05.654Z,58.57
2023-05-04T03:08:05.746Z,59.13
2023-05-04T03:09:05.866Z,60.48
2023-05-04T03:10:06.067Z,61.63
2023-05-04T03:11:06.069Z,62.32
2023-05-04T03:12:06.164Z,62.09
2023-05-04T03:13:06.351Z,63.83
2023-05-04T03:14:06.460Z,63.52
2023-05-04T03:15:06.482Z,63.49
2023-05-04T03:16:06.612Z,63.33
2023-05-04T03:17:06.740Z,62.96
2023-05-04T03:18:06.866Z,62.89
2023-05-04T03:19:06.904Z,63.74
2023-05-04T03:20:07.225Z,63.57
2023-05-04T03:21:07.115Z,62.98
2023-05-04T03:22:07.216Z,63.38
2023-05-04T03:23:07.326Z,63.91
2023-05-04T03:24:07.460Z,64.48
2023-05-04T03:25:07.550Z,63.86
2023-05-04T03:26:07.642Z,64.32
2023-05-04T03:27:07.773Z,64.21
2023-05-04T03:28:07.876Z,64.45
2023-05-04T03:29:08.002Z,65.64
2023-05-04T03:30:08.112Z,65.45
2023-05-04T03:31:08.202Z,66.40
2023-05-04T03:32:08.364Z,66.66
2023-05-04T03:33:08.434Z,66.34
2023-05-04T03:34:08.569Z,66.95
2023-05-04T03:35:08.671Z,67.75
2023-05-04T03:36:08.790Z,67.70
2023-05-04T03:37:08.916Z,68.59
2023-05-04T03:38:09.007Z,68.91
2023-05-04T03:39:09.144Z,68.82
2023-05-04T03:40:09.255Z,69.33
2023-05-04T03:41:09.338Z,69.01
2023-05-04T03:42:09.494Z,68.73
2023-05-04T03:43:10.507Z,67.77
2023-05-04T03:44:09.708Z,67.03
2023-05-04T03:45:09.799Z,67.34
2023-05-04T03:46:09.989Z,66.92
2023-05-04T03:47:10.057Z,67.25
2023-05-04T03:48:10.177Z,66.33
2023-05-04T03:49:10.264Z,66.74
2023-05-04T03:50:10.383Z,66.28
2023-05-04T03:51:10.486Z,65.50
2023-05-04T03:52:10.633Z,65.10
2023-05-04T03:53:10.702Z,64.31
2023-05-04T03:54:10.821Z,63.84
2023-05-04T03:55:10.941Z,63.66
2023-05-04T03:56:11.070Z,64.02
2023-05-04T03:57:11.227Z,65.10
2023-05-04T03:58:11.293Z,65.34
2023-05-04T03:59:11.420Z,67.97
2023-05-04T04:00:11.534Z,69.04
2023-05-04T04:01:11.638Z,70.22
2023-05-04T04:02:11.742Z,72.24
2023-05-04T04:03:12.103Z,72.55
2023-05-04T04:04:12.031Z,74.79
2023-05-04T04:05:12.108Z,74.93
2023-05-04T04:06:12.219Z,75.15
2023-05-04T04:07:12.336Z,75.58
2023-05-04T04:08:12.426Z,75.95
2023-05-04T04:09:12.530Z,76.63
2023-05-04T04:10:12.669Z,77.11
2023-05-04T04:11:12.776Z,76.28
2023-05-04T04:12:12.911Z,75.67
2023-05-04T04:13:13.142Z,75.48
2023-05-04T04:14:13.157Z,77.42
2023-05-04T04:15:13.225Z,76.62
2023-05-04T04:16:13.431Z,75.62
2023-05-04T04:17:13.472Z,76.16
2023-05-04T04:18:13.630Z,75.75
2023-05-04T04:19:13.724Z,76.59
2023-05-04T04:20:13.852Z,76.42
2023-05-04T04:21:13.975Z,77.58
2023-05-04T04:22:14.072Z,77.90
2023-05-04T04:23:14.174Z,78.53
2023-05-04T04:24:14.298Z,79.37
2023-05-04T04:25:14.390Z,79.61
2023-05-04T04:26:14.495Z,80.16
2023-05-04T04:27:14.596Z,80.55
2023-05-04T04:28:14.667Z,81.50
2023-05-04T04:29:14.774Z,81.48
2023-05-04T04:30:14.867Z,80.37
2023-05-04T04:31:14.958Z,80.37
2023-05-04T04:32:15.036Z,79.41
2023-05-04T04:33:15.259Z,79.85
2023-05-04T04:34:15.189Z,80.96
2023-05-04T04:35:15.291Z,80.60
2023-05-04T04:36:15.359Z,78.69
2023-05-04T04:37:15.457Z,76.74
2023-05-04T04:38:15.561Z,76.69
2023-05-04T04:39:15.701Z,76.17
2023-05-04T04:40:15.753Z,75.18
2023-05-04T04:41:15.865Z,74.43
2023-05-04T04:42:15.958Z,76.16
2023-05-04T04:43:16.024Z,77.44
2023-05-04T04:44:16.123Z,78.02
2023-05-04T04:45:16.238Z,77.70
2023-05-04T04:46:16.462Z,77.52
2023-05-04T04:47:16.517Z,77.28
2023-05-04T04:48:16.585Z,77.18
2023-05-04T04:49:16.649Z,77.61
2023-05-04T04:50:16.764Z,78.05
2023-05-04T04:51:16.849Z,78.88
2023-05-04T04:52:16.974Z,78.40
2023-05-04T04:53:18.032Z,78.31
2023-05-04T04:54:17.136Z,79.13
2023-05-04T04:55:17.207Z,79.04
2023-05-04T04:56:17.343Z,79.65
2023-05-04T04:57:17.445Z,79.74
2023-05-04T04:58:17.526Z,78.14
2023-05-04T04:59:17.670Z,78.57
2023-05-04T05:00:17.718Z,79.12
2023-05-04T05:01:18.063Z,79.59
2023-05-04T05:02:17.943Z,80.07
2023-05-04T05:03:18.108Z,80.17
2023-05-04T05:04:18.143Z,80.24
2023-05-04T05:05:18.232Z,80.70
2023-05-04T05:06:18.344Z,79.65
2023-05-04T05:07:18.418Z,80.38
2023-05-04T05:08:18.501Z,79.76
2023-05-04T05:09:18.611Z,78.71
2023-05-04T05:10:18.705Z,78.46
2023-05-04T05:11:18.784Z,79.44
2023-05-04T05:12:18.896Z,80.13
2023-05-04T05:13:18.985Z,78.46
2023-05-04T05:14:19.096Z,77.63
2023-05-04T05:15:19.181Z,75.74
2023-05-04T05:16:19.295Z,74.64
2023-05-04T05:17:19.340Z,74.72
2023-05-04T05:18:19.456Z,75.54
2023-05-04T05:19:19.526Z,74.39
2023-05-04T05:20:19.587Z,74.17
2023-05-04T05:21:19.660Z,74.58
2023-05-04T05:22:19.735Z,74.41
2023-05-04T05:23:19.749Z,73.95
2023-05-04T05:24:19.846Z,74.39
2023-05-04T05:25:19.926Z,74.51
2023-05-04T05:26:20.034Z,71.85
2023-05-04T05:27:20.102Z,72.73
2023-05-04T05:28:20.215Z,73.94
2023-05-04T05:29:20.320Z,75.42
2023-05-04T05:30:20.425Z,73.26
2023-05-04T05:31:20.601Z,74.74
2023-05-04T05:32:20.655Z,75.96
2023-05-04T05:33:20.753Z,76.95
2023-05-04T05:34:20.824Z,75.79
2023-05-04T05:35:20.953Z,72.52
2023-05-04T05:36:21.018Z,71.89
2023-05-04T05:37:21.064Z,72.41
2023-05-04T05:38:21.162Z,79.94
2023-05-04T05:39:21.230Z,85.33
2023-05-04T05:40:21.333Z,93.38
2023-05-04T05:41:21.488Z,92.65
2023-05-04T05:42:22.059Z,94.38
2023-05-04T05:43:21.690Z,98.23
2023-05-04T05:44:21.788Z,101.50
2023-05-04T05:45:21.933Z,106.56
2023-05-04T05:46:22.109Z,97.72
2023-05-04T05:47:22.229Z,95.32
2023-05-04T05:48:22.308Z,101.66
2023-05-04T05:49:22.422Z,113.77
2023-05-04T05:50:22.520Z,114.34
2023-05-04T05:51:22.645Z,117.19
2023-05-04T05:52:22.772Z,121.62
2023-05-04T05:53:22.871Z,124.30
2023-05-04T05:54:22.958Z,125.64
2023-05-04T05:55:23.091Z,123.30
2023-05-04T05:56:23.178Z,120.65
2023-05-04T05:57:23.551Z,133.04
2023-05-04T05:58:23.337Z,146.93
2023-05-04T05:59:23.466Z,150.90
2023-05-04T06:00:23.563Z,156.24
2023-05-04T06:01:24.214Z,165.08
2023-05-04T06:02:23.812Z,168.82
2023-05-04T06:03:23.988Z,170.14
2023-05-04T06:04:23.935Z,172.19
2023-05-04T06:05:23.948Z,175.41
2023-05-04T06:06:24.041Z,181.31
2023-05-04T06:07:24.115Z,182.79
2023-05-04T06:08:24.191Z,183.25
2023-05-04T06:09:24.269Z,185.52
2023-05-04T06:10:24.297Z,187.70
2023-05-04T06:11:24.389Z,188.80
2023-05-04T06:12:24.457Z,190.67
2023-05-04T06:13:24.473Z,193.45
2023-05-04T06:14:24.547Z,191.64
2023-05-04T06:15:24.620Z,191.18
2023-05-04T06:16:24.747Z,198.05
2023-05-04T06:17:24.750Z,199.43
2023-05-04T06:18:24.777Z,200.95
2023-05-04T06:19:24.828Z,203.72
2023-05-04T06:20:24.870Z,205.01
2023-05-04T06:21:25.017Z,207.82
2023-05-04T06:22:25.014Z,209.17
2023-05-04T06:23:25.076Z,216.05
2023-05-04T06:24:25.094Z,219.61
2023-05-04T06:25:25.155Z,221.39
2023-05-04T06:26:25.173Z,222.20
2023-05-04T06:27:25.275Z,224.12
2023-05-04T06:28:25.293Z,224.06
2023-05-04T06:29:25.351Z,227.26
2023-05-04T06:30:25.376Z,229.03
2023-05-04T06:31:25.530Z,229.21
2023-05-04T06:32:25.540Z,227.33
2023-05-04T06:33:25.581Z,231.81
2023-05-04T06:34:25.643Z,234.77
2023-05-04T06:35:25.771Z,233.72
2023-05-04T06:36:25.832Z,232.24
2023-05-04T06:37:25.915Z,232.07
2023-05-04T06:38:25.997Z,234.55
2023-05-04T06:39:26.065Z,234.89
2023-05-04T06:40:26.159Z,235.10
2023-05-04T06:41:26.196Z,236.41
2023-05-04T06:42:26.292Z,237.21
2023-05-04T06:43:26.356Z,238.05
2023-05-04T06:44:26.409Z,237.93
2023-05-04T06:45:26.532Z,242.48
2023-05-04T06:46:26.642Z,219.91
2023-05-04T06:47:26.721Z,219.22
2023-05-04T06:48:26.757Z,218.83
2023-05-04T06:49:26.826Z,224.12
2023-05-04T06:50:26.957Z,238.16
2023-05-04T06:51:27.023Z,247.00
2023-05-04T06:52:27.124Z,249.18
2023-05-04T06:53:27.204Z,245.62
2023-05-04T06:54:27.268Z,245.63
2023-05-04T06:55:27.356Z,248.10
2023-05-04T06:56:27.429Z,246.11
2023-05-04T06:57:27.510Z,250.00
2023-05-04T06:58:27.580Z,248.17
2023-05-04T06:59:27.667Z,248.42
2023-05-04T07:00:27.801Z,250.06
2023-05-04T07:01:27.896Z,249.67
2023-05-04T07:02:28.018Z,247.61
2023-05-04T07:03:28.097Z,247.71
2023-05-04T07:04:28.201Z,246.33
2023-05-04T07:05:28.266Z,245.97
2023-05-04T07:06:28.380Z,248.20
2023-05-04T07:07:28.525Z,247.29
2023-05-04T07:08:28.622Z,247.75
2023-05-04T07:09:28.721Z,248.07
2023-05-04T07:10:28.815Z,248.92
2023-05-04T07:11:28.948Z,248.87
2023-05-04T07:12:29.103Z,249.31
2023-05-04T07:13:29.149Z,249.52
2023-05-04T07:14:29.243Z,248.46
2023-05-04T07:15:29.315Z,249.07
2023-05-04T07:16:29.471Z,247.56
2023-05-04T07:17:29.524Z,247.20
2023-05-04T07:18:29.608Z,242.31
2023-05-04T07:19:29.710Z,240.25
2023-05-04T07:20:29.845Z,245.41
2023-05-04T07:21:29.967Z,245.43
2023-05-04T07:22:30.056Z,246.94
2023-05-04T07:23:30.149Z,247.06
2023-05-04T07:24:30.260Z,244.23
2023-05-04T07:25:30.370Z,245.39
2023-05-04T07:26:30.440Z,245.58
2023-05-04T07:27:30.584Z,240.10
2023-05-04T07:28:30.691Z,240.16
2023-05-04T07:29:30.757Z,238.54
2023-05-04T07:30:30.839Z,239.13
2023-05-04T07:31:31.045Z,233.80
2023-05-04T07:32:31.038Z,232.27
2023-05-04T07:33:31.146Z,233.94
2023-05-04T07:34:44.616Z,234.03
2023-05-04T07:35:32.287Z,234.13
2023-05-04T07:36:31.302Z,233.83
2023-05-04T07:37:31.589Z,230.85
2023-05-04T07:38:31.378Z,218.15
2023-05-04T07:39:31.425Z,224.75
2023-05-04T07:40:31.463Z,223.38
2023-05-04T07:41:31.477Z,208.07
2023-05-04T07:42:31.590Z,192.25
2023-05-04T07:43:31.555Z,178.75
2023-05-04T07:44:31.671Z,166.67
2023-05-04T07:45:31.705Z,137.88
2023-05-04T07:46:31.835Z,135.30
2023-05-04T07:47:32.183Z,156.49
2023-05-04T07:48:31.919Z,161.56
2023-05-04T07:49:32.027Z,160.60
2023-05-04T07:50:32.059Z,129.06
2023-05-04T07:51:32.154Z,139.55
2023-05-04T07:52:32.275Z,144.92
2023-05-04T07:53:32.352Z,154.70
2023-05-04T07:54:32.432Z,157.41
2023-05-04T07:55:32.527Z,161.65
2023-05-04T07:56:32.628Z,160.85
2023-05-04T07:57:32.683Z,153.31
2023-05-04T07:58:32.714Z,158.14
2023-05-04T07:59:32.823Z,155.52
2023-05-04T08:00:32.886Z,153.69
2023-05-04T08:01:33.026Z,148.13
2023-05-04T08:02:33.146Z,142.00
2023-05-04T08:03:33.127Z,137.24
2023-05-04T08:04:33.225Z,130.01
2023-05-04T08:05:33.310Z,128.11
2023-05-04T08:06:33.391Z,109.50
2023-05-04T08:07:33.457Z,107.55
2023-05-04T08:08:33.552Z,112.03
2023-05-04T08:09:33.587Z,117.58
2023-05-04T08:10:33.693Z,115.81
2023-05-04T08:11:33.735Z,117.25
2023-05-04T08:12:33.857Z,115.94
2023-05-04T08:13:33.894Z,109.94
2023-05-04T08:14:34.137Z,107.99
2023-05-04T08:15:34.010Z,105.12
2023-05-04T08:16:34.127Z,104.24
2023-05-04T08:17:34.216Z,101.01
2023-05-04T08:18:34.236Z,100.11
2023-05-04T08:19:34.295Z,102.29
2023-05-04T08:20:34.428Z,101.12
2023-05-04T08:21:34.454Z,103.81
2023-05-04T08:22:34.546Z,104.05
2023-05-04T08:23:34.599Z,104.80
2023-05-04T08:24:34.680Z,104.92
2023-05-04T08:25:34.770Z,102.43
2023-05-04T08:26:34.856Z,103.19
2023-05-04T08:27:34.936Z,101.97
2023-05-04T08:28:35.011Z,102.08
2023-05-04T08:29:35.097Z,93.59
2023-05-04T08:30:35.151Z,96.48
2023-05-04T08:31:35.316Z,90.68
2023-05-04T08:32:35.385Z,88.12
2023-05-04T08:33:35.401Z,82.91
2023-05-04T08:34:35.445Z,44.69
2023-05-04T08:35:35.563Z,53.29
2023-05-04T08:36:35.678Z,54.09
2023-05-04T08:37:35.723Z,72.16
2023-05-04T08:38:35.787Z,65.37
2023-05-04T08:39:35.905Z,85.45
2023-05-04T08:40:35.953Z,96.15
2023-05-04T08:41:36.041Z,97.00
2023-05-04T08:42:36.139Z,105.42
2023-05-04T08:43:36.239Z,118.95
2023-05-04T08:44:36.227Z,112.21
2023-05-04T08:45:36.333Z,93.02
2023-05-04T08:46:36.370Z,81.18
2023-05-04T08:47:36.675Z,96.85
2023-05-04T08:48:36.496Z,125.83
2023-05-04T08:49:36.604Z,125.99
2023-05-04T08:50:36.654Z,128.69
2023-05-04T08:51:36.777Z,130.23
2023-05-04T08:52:36.832Z,85.75
2023-05-04T08:53:36.851Z,97.42
2023-05-04T08:54:36.934Z,101.13
2023-05-04T08:55:37.026Z,112.42
2023-05-04T08:56:37.049Z,104.88
2023-05-04T08:57:37.171Z,118.26
2023-05-04T08:58:37.238Z,138.21
2023-05-04T08:59:37.309Z,140.44
2023-05-04T09:00:37.415Z,137.59
2023-05-04T09:01:37.440Z,150.01
2023-05-04T09:02:37.693Z,155.82
2023-05-04T09:03:37.753Z,162.61
2023-05-04T09:04:37.756Z,163.66
2023-05-04T09:05:37.739Z,165.59
2023-05-04T09:06:37.838Z,170.74
2023-05-04T09:07:37.958Z,174.39
2023-05-04T09:08:38.007Z,179.55
2023-05-04T09:09:38.121Z,171.79
2023-05-04T09:10:38.264Z,178.84
2023-05-04T09:11:38.302Z,178.75
2023-05-04T09:12:38.441Z,171.04
2023-05-04T09:13:38.441Z,172.52
2023-05-04T09:14:38.535Z,179.24
2023-05-04T09:15:38.651Z,184.88
2023-05-04T09:16:38.756Z,190.95
2023-05-04T09:17:50.946Z,193.17
2023-05-04T09:18:39.801Z,193.40
2023-05-04T09:19:38.807Z,194.23
2023-05-04T09:20:38.834Z,195.15
2023-05-04T09:21:38.881Z,200.17
2023-05-04T09:22:38.928Z,203.11
2023-05-04T09:23:38.980Z,205.77
2023-05-04T09:24:38.931Z,202.34
2023-05-04T09:25:38.944Z,204.27
2023-05-04T09:26:38.984Z,206.76
2023-05-04T09:27:39.012Z,208.47
2023-05-04T09:28:39.048Z,212.82
2023-05-04T09:29:39.051Z,215.80
2023-05-04T09:30:39.097Z,214.91
2023-05-04T09:31:39.243Z,220.18
2023-05-04T09:32:39.149Z,221.73
2023-05-04T09:33:39.152Z,224.44
2023-05-04T09:34:39.168Z,226.96
2023-05-04T09:35:39.248Z,230.29
2023-05-04T09:36:39.292Z,234.05
2023-05-04T09:37:39.674Z,237.51
2023-05-04T09:38:39.309Z,242.85
2023-05-04T09:39:39.362Z,244.12
2023-05-04T09:40:39.483Z,246.45
2023-05-04T09:41:39.453Z,248.21
2023-05-04T09:42:39.493Z,244.78
2023-05-04T09:43:39.649Z,219.46
2023-05-04T09:44:39.570Z,204.11
2023-05-04T09:45:39.610Z,196.38
2023-05-04T09:46:39.695Z,202.07
2023-05-04T09:47:39.769Z,213.25
2023-05-04T09:48:40.160Z,215.64
2023-05-04T09:49:39.840Z,222.93
2023-05-04T09:50:39.895Z,224.70
2023-05-04T09:51:39.957Z,224.08
2023-05-04T09:52:40.061Z,224.24
2023-05-04T09:53:40.116Z,224.71
2023-05-04T09:54:40.187Z,217.09
2023-05-04T09:55:40.268Z,219.07
2023-05-04T09:56:40.340Z,207.23
2023-05-04T09:57:40.423Z,184.62
2023-05-04T09:58:40.490Z,185.10
2023-05-04T09:59:40.582Z,181.72
2023-05-04T10:00:40.672Z,174.41
2023-05-04T10:01:42.249Z,174.28
2023-05-04T10:02:40.871Z,169.65
2023-05-04T10:03:40.813Z,166.07
2023-05-04T10:04:40.788Z,168.22
2023-05-04T10:05:40.880Z,154.36
2023-05-04T10:06:40.840Z,151.39
2023-05-04T10:07:41.638Z,144.53
2023-05-04T10:08:40.895Z,145.21
2023-05-04T10:09:40.936Z,146.23
2023-05-04T10:10:40.939Z,146.88
2023-05-04T10:11:40.991Z,160.52
2023-05-04T10:12:41.042Z,163.20
2023-05-04T10:13:41.042Z,161.66
2023-05-04T10:14:41.098Z,158.65
2023-05-04T10:15:41.128Z,159.66
2023-05-04T10:16:41.107Z,154.10
2023-05-04T10:17:41.224Z,152.52
2023-05-04T10:18:41.170Z,147.30
2023-05-04T10:19:41.171Z,146.43
2023-05-04T10:20:41.224Z,147.87
2023-05-04T10:21:41.284Z,152.48
2023-05-04T10:22:41.286Z,160.71
2023-05-04T10:23:41.324Z,159.16
2023-05-04T10:24:41.325Z,163.63
2023-05-04T10:25:41.367Z,167.61
2023-05-04T10:26:41.409Z,171.76
2023-05-04T10:27:41.456Z,177.92
2023-05-04T10:28:41.466Z,185.58
2023-05-04T10:29:41.476Z,188.74
2023-05-04T10:30:41.484Z,189.99
2023-05-04T10:31:41.604Z,191.49
2023-05-04T10:32:41.598Z,189.63
2023-05-04T10:33:41.613Z,188.35
2023-05-04T10:34:41.588Z,189.52
2023-05-04T10:35:41.643Z,191.77
2023-05-04T10:36:41.680Z,194.36
2023-05-04T10:37:41.701Z,191.93
2023-05-04T10:38:41.728Z,191.85
2023-05-04T10:39:41.742Z,192.84
2023-05-04T10:40:41.938Z,199.15
2023-05-04T10:41:41.848Z,201.79
2023-05-04T10:42:41.844Z,207.24
2023-05-04T10:43:41.862Z,199.81
2023-05-04T10:44:41.955Z,199.62
2023-05-04T10:45:42.091Z,186.15
2023-05-04T10:46:42.066Z,180.30
2023-05-04T10:47:42.136Z,183.36
2023-05-04T10:48:42.181Z,190.67
2023-05-04T10:49:42.272Z,191.70
2023-05-04T10:50:42.352Z,192.27
2023-05-04T10:51:48.951Z,193.31
2023-05-04T10:52:43.444Z,193.49
2023-05-04T10:53:42.449Z,194.51
2023-05-04T10:54:42.511Z,198.15
2023-05-04T10:55:42.486Z,202.39
2023-05-04T10:56:42.609Z,206.28
2023-05-04T10:57:42.544Z,196.56
2023-05-04T10:58:42.613Z,200.59
2023-05-04T10:59:42.637Z,195.04
2023-05-04T11:00:42.683Z,187.66
2023-05-04T11:01:42.732Z,186.78
2023-05-04T11:02:42.826Z,194.18
2023-05-04T11:03:42.818Z,195.22
2023-05-04T11:04:42.749Z,193.78
2023-05-04T11:05:42.754Z,193.16
2023-05-04T11:06:42.823Z,194.84
2023-05-04T11:07:42.845Z,195.74
2023-05-04T11:08:43.196Z,195.91
2023-05-04T11:09:42.868Z,197.03
2023-05-04T11:10:42.871Z,197.29
2023-05-04T11:11:42.913Z,198.79
2023-05-04T11:12:43.088Z,199.90
2023-05-04T11:13:43.032Z,200.54
2023-05-04T11:14:43.488Z,199.73
2023-05-04T11:15:43.142Z,197.68
2023-05-04T11:16:43.244Z,198.09
2023-05-04T11:17:43.313Z,197.99
2023-05-04T11:18:43.301Z,195.91
2023-05-04T11:19:43.407Z,196.46
2023-05-04T11:20:43.425Z,192.43
2023-05-04T11:21:43.516Z,195.34
2023-05-04T11:22:43.548Z,194.18
2023-05-04T11:23:43.600Z,196.67
2023-05-04T11:24:44.199Z,198.07
2023-05-04T11:25:43.698Z,196.59
2023-05-04T11:26:43.776Z,197.71
2023-05-04T11:27:43.812Z,197.88
2023-05-04T11:28:44.213Z,198.62
2023-05-04T11:29:43.947Z,198.94
2023-05-04T11:30:43.964Z,201.33
2023-05-04T11:31:44.084Z,201.73
2023-05-04T11:32:44.171Z,201.52
2023-05-04T11:33:44.176Z,200.31
2023-05-04T11:34:44.177Z,201.85
2023-05-04T11:35:44.205Z,200.66
2023-05-04T11:36:44.294Z,202.59
2023-05-04T11:37:44.324Z,203.09
2023-05-04T11:38:44.387Z,202.36
2023-05-04T11:39:44.406Z,203.55
2023-05-04T11:40:44.465Z,202.05
2023-05-04T11:41:44.494Z,202.13
2023-05-04T11:42:44.549Z,201.71
2023-05-04T11:43:44.613Z,196.98
2023-05-04T11:44:44.677Z,193.97
2023-05-04T11:45:44.686Z,195.64
2023-05-04T11:46:45.742Z,196.66
2023-05-04T11:47:44.827Z,197.11
2023-05-04T11:48:44.807Z,198.41
2023-05-04T11:49:44.836Z,198.26
2023-05-04T11:50:44.891Z,198.19
2023-05-04T11:51:44.927Z,197.87
2023-05-04T11:52:44.997Z,199.29
2023-05-04T11:53:45.022Z,198.28
2023-05-04T11:54:45.067Z,201.12
2023-05-04T11:55:45.095Z,200.33
2023-05-04T11:56:45.114Z,199.23
2023-05-04T11:57:45.201Z,199.79
2023-05-04T11:58:45.225Z,197.02
2023-05-04T11:59:45.248Z,198.70
2023-05-04T12:00:45.407Z,200.32
2023-05-04T12:01:45.363Z,201.40
2023-05-04T12:02:45.408Z,201.49
2023-05-04T12:03:53.891Z,197.65
2023-05-04T12:04:46.425Z,197.82
2023-05-04T12:05:46.261Z,198.28
2023-05-04T12:06:45.475Z,197.39
2023-05-04T12:07:45.489Z,192.68
2023-05-04T12:08:45.551Z,192.22
2023-05-04T12:09:45.495Z,192.40
2023-05-04T12:10:45.527Z,194.60
2023-05-04T12:11:45.569Z,197.50
2023-05-04T12:12:45.615Z,200.38
2023-05-04T12:13:45.735Z,200.65
2023-05-04T12:14:45.647Z,201.82
2023-05-04T12:15:45.621Z,200.81
2023-05-04T12:16:45.726Z,206.73
2023-05-04T12:17:45.681Z,211.16
2023-05-04T12:18:45.697Z,213.53
2023-05-04T12:19:45.710Z,214.26
2023-05-04T12:20:45.704Z,220.25
2023-05-04T12:21:45.741Z,216.32
2023-05-04T12:22:45.755Z,224.39
2023-05-04T12:23:46.232Z,225.28
2023-05-04T12:24:45.818Z,220.28
2023-05-04T12:25:57.436Z,222.93
2023-05-04T12:26:46.854Z,223.24
2023-05-04T12:27:45.881Z,224.30
2023-05-04T12:28:45.904Z,226.75
2023-05-04T12:29:46.226Z,230.93
2023-05-04T12:30:45.965Z,227.66
2023-05-04T12:31:45.960Z,227.68
2023-05-04T12:32:46.042Z,226.06
2023-05-04T12:33:45.969Z,224.62
2023-05-04T12:34:46.024Z,223.02
2023-05-04T12:35:46.040Z,219.91
2023-05-04T12:36:46.042Z,217.14
2023-05-04T12:37:46.069Z,215.27
2023-05-04T12:38:46.150Z,213.66
2023-05-04T12:39:46.087Z,212.77
2023-05-04T12:40:46.124Z,212.39